Time;durP1;ratioP1;P1;durP2;ratioP2;P2;SDS_P1;SDS_P2;PMS_P1;PMS_P2;Temp;Humidity;BMP_temperature;BMP_pressure;BME280_temperature;BME280_humidity;BME280_pressure;Samples;Min_cycle;Max_cycle;Signal;HPM_P1;HPM_P2
2023/05/06 00:01:04;;;;;;;8.40;5.50;;;15.70;90.10;;;;;;5049653;28;20301;-78
2023/05/06 00:03:30;;;;;;;10.10;5.43;;;15.70;90.40;;;;;;5043042;28;20198;-79
2023/05/06 00:05:55;;;;;;;7.17;4.90;;;15.60;90.40;;;;;;5056383;28;20183;-79
2023/05/06 00:08:21;;;;;;;7.37;5.50;;;15.60;90.40;;;;;;5041111;28;20460;-79
2023/05/06 00:10:46;;;;;;;6.37;4.80;;;15.60;90.60;;;;;;5037174;28;20208;-78
2023/05/06 00:13:12;;;;;;;7.97;5.20;;;15.60;90.50;;;;;;5063716;28;20241;-76
2023/05/06 00:15:39;;;;;;;6.73;4.07;;;15.60;90.50;;;;;;5055617;28;20188;-78
2023/05/06 00:18:05;;;;;;;4.17;3.50;;;15.50;89.50;;;;;;5053722;28;20184;-79
2023/05/06 00:20:31;;;;;;;7.17;5.10;;;15.50;89.50;;;;;;5057567;28;20471;-81
2023/05/06 00:22:57;;;;;;;5.93;3.90;;;15.40;89.50;;;;;;5036891;28;20469;-79
2023/05/06 00:25:23;;;;;;;4.43;3.70;;;15.50;89.70;;;;;;5052805;28;20438;-80
2023/05/06 00:27:49;;;;;;;5.37;3.87;;;15.40;89.90;;;;;;5054395;28;20422;-79
2023/05/06 00:30:15;;;;;;;5.60;4.50;;;15.30;89.90;;;;;;5049974;28;20204;-79
2023/05/06 00:32:40;;;;;;;5.67;3.97;;;15.30;89.70;;;;;;5054024;28;21153;-80
2023/05/06 00:35:07;;;;;;;6.87;4.27;;;15.40;90.00;;;;;;5034341;28;20185;-82
2023/05/06 00:37:33;;;;;;;6.97;4.40;;;15.40;89.90;;;;;;5050444;28;20252;-79
2023/05/06 00:39:59;;;;;;;6.63;4.63;;;15.40;89.70;;;;;;5045147;28;20545;-79
2023/05/06 00:42:24;;;;;;;6.87;4.87;;;15.50;89.70;;;;;;5049332;28;20265;-77
2023/05/06 00:44:50;;;;;;;5.60;4.60;;;15.40;89.60;;;;;;5050816;28;20549;-76
2023/05/06 00:47:17;;;;;;;6.60;3.70;;;15.30;89.60;;;;;;5051084;28;21009;-80
2023/05/06 00:49:45;;;;;;;5.70;4.00;;;15.30;89.30;;;;;;5053855;28;20273;-78
2023/05/06 00:52:11;;;;;;;5.97;4.00;;;15.20;89.20;;;;;;5056644;28;20489;-79
2023/05/06 00:54:37;;;;;;;5.87;3.80;;;15.30;89.00;;;;;;5051591;28;20568;-79
2023/05/06 00:57:02;;;;;;;6.20;4.13;;;15.30;88.60;;;;;;5056187;28;21191;-79
2023/05/06 00:59:28;;;;;;;4.33;3.17;;;15.20;88.40;;;;;;5051971;28;20714;-76
2023/05/06 01:01:54;;;;;;;5.00;3.57;;;15.10;88.40;;;;;;5064354;28;21001;-78
2023/05/06 01:04:22;;;;;;;5.33;3.50;;;15.10;88.30;;;;;;5052997;28;20180;-78
2023/05/06 01:07:11;;;;;;;6.60;3.37;;;15.10;88.10;;;;;;5048133;28;20184;-78
2023/05/06 01:10:01;;;;;;;5.83;3.80;;;15.10;88.10;;;;;;5047271;28;20466;-80
2023/05/06 01:12:31;;;;;;;4.50;3.00;;;15.20;87.60;;;;;;5029830;28;20594;-79
2023/05/06 01:15:37;;;;;;;4.30;3.27;;;15.20;87.40;;;;;;5032602;28;20438;-78
2023/05/06 01:18:08;;;;;;;3.63;2.93;;;15.20;87.60;;;;;;4928929;29;20435;-77
2023/05/06 01:20:37;;;;;;;6.17;3.70;;;15.20;88.00;;;;;;4932395;29;20947;-80
2023/05/06 01:23:09;;;;;;;6.57;3.27;;;15.20;88.10;;;;;;4948111;28;21007;-79
2023/05/06 01:25:35;;;;;;;6.77;3.00;;;15.30;88.00;;;;;;4933622;29;20440;-79
2023/05/06 01:28:00;;;;;;;6.50;3.63;;;15.30;87.60;;;;;;4934362;29;20458;-79
2023/05/06 01:30:34;;;;;;;6.50;3.90;;;15.30;87.00;;;;;;4932264;29;20229;-78
2023/05/06 01:33:10;;;;;;;4.13;2.90;;;15.30;87.00;;;;;;4959885;28;20196;-78
2023/05/06 01:35:51;;;;;;;4.60;3.10;;;15.20;86.60;;;;;;4950840;28;20438;-80
2023/05/06 01:38:31;;;;;;;3.60;2.97;;;15.20;86.50;;;;;;4949918;29;20442;-79
2023/05/06 01:40:59;;;;;;;5.97;3.27;;;15.20;86.90;;;;;;4967054;28;20459;-75
2023/05/06 01:43:30;;;;;;;3.70;2.80;;;15.20;87.10;;;;;;4972210;29;20470;-77
2023/05/06 01:45:56;;;;;;;4.30;3.20;;;15.20;87.30;;;;;;4960189;28;20431;-79
2023/05/06 01:48:29;;;;;;;4.37;2.73;;;15.10;87.30;;;;;;4987152;28;20434;-77
2023/05/06 01:50:55;;;;;;;4.40;3.37;;;15.10;87.70;;;;;;5044578;28;20992;-80
2023/05/06 01:53:21;;;;;;;4.20;2.70;;;15.10;87.80;;;;;;5030756;28;20432;-78
2023/05/06 01:55:47;;;;;;;3.60;2.80;;;15.10;88.00;;;;;;5043577;28;20469;-79
2023/05/06 01:58:13;;;;;;;5.80;3.23;;;15.10;87.80;;;;;;5042426;28;20578;-80
2023/05/06 02:00:39;;;;;;;4.80;3.10;;;15.10;87.60;;;;;;5030587;28;20483;-79
2023/05/06 02:03:05;;;;;;;7.07;3.27;;;15.10;87.60;;;;;;5051372;28;21081;-79
2023/05/06 02:05:30;;;;;;;4.53;3.20;;;15.00;87.80;;;;;;5051293;28;20774;-81
2023/05/06 02:07:56;;;;;;;5.53;2.80;;;15.10;87.70;;;;;;5055671;28;20187;-76
2023/05/06 02:10:22;;;;;;;5.93;3.50;;;15.00;88.00;;;;;;5053190;28;20210;-74
2023/05/06 02:12:47;;;;;;;4.20;3.20;;;15.00;87.80;;;;;;5055327;28;20193;-81
2023/05/06 02:15:14;;;;;;;4.10;3.00;;;15.10;87.80;;;;;;5055255;28;20215;-79
2023/05/06 02:17:40;;;;;;;6.53;3.20;;;15.00;87.80;;;;;;5055221;28;20184;-78
2023/05/06 02:20:08;;;;;;;4.93;3.43;;;15.00;88.00;;;;;;5052439;28;20455;-78
2023/05/06 02:22:34;;;;;;;7.30;3.50;;;15.00;88.00;;;;;;5057102;28;20203;-78
2023/05/06 02:25:00;;;;;;;4.77;2.90;;;15.00;88.30;;;;;;5056872;28;20921;-79
2023/05/06 02:27:25;;;;;;;7.67;3.10;;;15.00;88.60;;;;;;5058364;28;20417;-78
2023/05/06 02:29:51;;;;;;;4.10;3.37;;;14.90;88.40;;;;;;5051985;28;20203;-78
2023/05/06 02:32:17;;;;;;;3.93;2.73;;;15.00;88.30;;;;;;5053949;28;20189;-80
2023/05/06 02:34:42;;;;;;;3.90;3.13;;;15.10;87.00;;;;;;5053202;28;20305;-78
2023/05/06 02:37:08;;;;;;;4.50;3.00;;;15.00;87.30;;;;;;5054179;28;20195;-76
2023/05/06 02:39:33;;;;;;;6.90;3.37;;;15.00;87.70;;;;;;5033910;28;20915;-78
2023/05/06 02:41:59;;;;;;;4.40;2.73;;;15.00;87.70;;;;;;5036578;28;20202;-79
2023/05/06 02:44:25;;;;;;;5.80;3.33;;;15.00;87.30;;;;;;5054303;28;20281;-78
2023/05/06 02:46:51;;;;;;;3.97;3.13;;;15.00;86.90;;;;;;5053769;28;20433;-76
2023/05/06 02:49:16;;;;;;;4.60;3.33;;;15.00;87.30;;;;;;5052483;28;20261;-79
2023/05/06 02:51:42;;;;;;;4.30;3.60;;;15.00;87.10;;;;;;5036667;28;20714;-78
2023/05/06 02:54:07;;;;;;;4.40;3.77;;;15.00;87.10;;;;;;5054896;28;20233;-79
2023/05/06 02:56:34;;;;;;;4.53;3.53;;;15.00;87.30;;;;;;5052932;28;20685;-78
2023/05/06 02:59:00;;;;;;;5.70;3.80;;;14.90;87.30;;;;;;5036321;28;20215;-76
2023/05/06 03:01:26;;;;;;;6.90;3.93;;;15.00;87.60;;;;;;5048713;28;20554;-80
2023/05/06 03:03:51;;;;;;;5.93;4.27;;;15.00;87.60;;;;;;5037006;28;20931;-80
2023/05/06 03:06:17;;;;;;;6.30;3.87;;;15.00;86.80;;;;;;5035438;28;20439;-79
2023/05/06 03:08:43;;;;;;;6.03;4.03;;;15.00;87.00;;;;;;5055439;28;20195;-78
2023/05/06 03:11:08;;;;;;;5.13;4.10;;;14.90;87.60;;;;;;5033606;28;20256;-77
2023/05/06 03:13:34;;;;;;;6.40;3.70;;;14.90;87.80;;;;;;5054733;28;20195;-78
2023/05/06 03:16:01;;;;;;;4.60;3.57;;;14.80;88.30;;;;;;5053842;28;20227;-78
2023/05/06 03:18:26;;;;;;;8.17;4.10;;;14.80;88.60;;;;;;5035900;28;20185;-79
2023/05/06 03:20:52;;;;;;;4.70;4.10;;;14.80;88.90;;;;;;5051283;28;20449;-78
2023/05/06 03:23:18;;;;;;;8.10;4.27;;;14.70;89.00;;;;;;5054413;28;20213;-78
2023/05/06 03:25:43;;;;;;;8.37;4.40;;;14.60;89.30;;;;;;5034264;28;20186;-79
2023/05/06 03:28:10;;;;;;;7.10;4.40;;;14.60;89.00;;;;;;5055953;28;20181;-80
2023/05/06 03:30:36;;;;;;;6.80;5.30;;;14.60;88.90;;;;;;5053358;28;20208;-79
2023/05/06 03:33:02;;;;;;;11.50;4.07;;;14.60;89.30;;;;;;5056753;28;20515;-78
2023/05/06 03:35:27;;;;;;;4.60;3.60;;;14.60;89.60;;;;;;5035903;28;20303;-78
2023/05/06 03:37:53;;;;;;;9.20;4.20;;;14.60;89.20;;;;;;5056650;28;20188;-80
2023/05/06 03:40:19;;;;;;;5.50;4.67;;;14.70;88.40;;;;;;5048697;28;20702;-80
2023/05/06 03:42:45;;;;;;;7.63;4.40;;;14.70;88.40;;;;;;5055383;28;20206;-80
2023/05/06 03:45:10;;;;;;;6.90;4.00;;;14.70;88.90;;;;;;5051451;28;20445;-77
2023/05/06 03:47:37;;;;;;;5.17;3.70;;;14.70;89.00;;;;;;5028327;28;20510;-78
2023/05/06 03:50:02;;;;;;;6.70;4.10;;;14.80;89.00;;;;;;5048885;28;20209;-78
2023/05/06 03:52:29;;;;;;;6.47;4.50;;;14.70;88.70;;;;;;5053990;28;20430;-79
2023/05/06 03:54:54;;;;;;;8.33;4.80;;;14.70;88.70;;;;;;5052830;28;20419;-77
2023/05/06 03:57:20;;;;;;;6.40;4.77;;;14.70;88.90;;;;;;5053762;28;21234;-78
2023/05/06 03:59:45;;;;;;;6.97;4.03;;;14.50;88.60;;;;;;5058082;28;21066;-77
2023/05/06 04:02:11;;;;;;;8.60;4.10;;;14.50;88.90;;;;;;5054527;28;20251;-78
2023/05/06 04:04:37;;;;;;;10.30;4.50;;;14.40;89.00;;;;;;5034399;28;20191;-79
2023/05/06 04:07:02;;;;;;;6.03;4.40;;;14.40;89.30;;;;;;5054727;28;20188;-79
2023/05/06 04:09:28;;;;;;;9.43;5.60;;;14.30;89.50;;;;;;5051833;28;20218;-79
2023/05/06 04:11:54;;;;;;;6.80;4.23;;;14.20;89.60;;;;;;5052649;28;20192;-79
2023/05/06 04:14:20;;;;;;;6.90;4.47;;;14.20;89.70;;;;;;5048686;28;20181;-79
2023/05/06 04:16:46;;;;;;;8.17;4.73;;;14.20;90.00;;;;;;5053062;28;20426;-78
2023/05/06 04:19:12;;;;;;;6.00;4.30;;;14.20;89.90;;;;;;5051830;28;20177;-78
2023/05/06 04:21:37;;;;;;;7.83;4.80;;;14.10;89.90;;;;;;5049717;28;20456;-77
2023/05/06 04:24:03;;;;;;;6.70;4.37;;;14.00;90.00;;;;;;5053657;28;20180;-79
2023/05/06 04:26:28;;;;;;;10.30;5.20;;;14.00;90.10;;;;;;5053833;28;20283;-80
2023/05/06 04:28:54;;;;;;;7.00;4.40;;;14.00;90.10;;;;;;5054928;28;20176;-79
2023/05/06 04:31:20;;;;;;;6.90;4.57;;;14.00;90.20;;;;;;5052253;28;20618;-79
2023/05/06 04:33:45;;;;;;;7.67;4.43;;;13.90;90.20;;;;;;5056148;28;20187;-81
2023/05/06 04:36:11;;;;;;;6.63;4.50;;;13.90;90.20;;;;;;5056054;28;20606;-79
2023/05/06 04:38:37;;;;;;;6.30;4.93;;;13.90;90.20;;;;;;5057708;28;20184;-80
2023/05/06 04:41:04;;;;;;;7.87;5.23;;;13.90;90.00;;;;;;5052291;28;20489;-79
2023/05/06 04:43:30;;;;;;;9.70;5.37;;;13.80;90.00;;;;;;5050448;28;20511;-79
2023/05/06 04:45:56;;;;;;;7.37;4.30;;;13.80;90.20;;;;;;5039336;28;20450;-78
2023/05/06 04:48:22;;;;;;;5.87;4.20;;;13.80;90.20;;;;;;5056442;28;20186;-75
2023/05/06 04:50:49;;;;;;;5.33;3.70;;;13.80;90.40;;;;;;5049945;28;20466;-78
2023/05/06 04:53:16;;;;;;;12.33;4.70;;;13.80;90.50;;;;;;5051983;28;20427;-79
2023/05/06 04:55:42;;;;;;;8.47;4.87;;;13.80;90.50;;;;;;5049122;28;20439;-75
2023/05/06 04:58:07;;;;;;;7.10;4.20;;;13.80;90.60;;;;;;5076162;28;20526;-77
2023/05/06 05:00:33;;;;;;;7.67;3.87;;;13.90;90.70;;;;;;5072934;28;20215;-75
2023/05/06 05:03:00;;;;;;;7.17;5.33;;;13.90;90.60;;;;;;5075314;28;20208;-76
2023/05/06 05:05:27;;;;;;;6.70;4.13;;;13.90;90.60;;;;;;5054336;28;20432;-76
2023/05/06 05:07:53;;;;;;;8.60;4.30;;;13.90;90.50;;;;;;5070731;28;20474;-76
2023/05/06 05:10:19;;;;;;;8.40;4.90;;;14.00;90.20;;;;;;5073407;28;20452;-75
2023/05/06 05:12:45;;;;;;;8.03;4.50;;;14.10;90.10;;;;;;5057008;28;20434;-77
2023/05/06 05:15:11;;;;;;;6.60;4.60;;;14.10;89.50;;;;;;5072235;28;20197;-77
2023/05/06 05:17:36;;;;;;;7.03;4.20;;;14.20;89.50;;;;;;5071523;28;20257;-77
2023/05/06 05:20:03;;;;;;;6.30;3.70;;;14.20;89.30;;;;;;5073406;28;20192;-75
2023/05/06 05:22:29;;;;;;;12.70;4.57;;;14.20;89.50;;;;;;5075434;28;20196;-76
2023/05/06 05:24:54;;;;;;;7.93;4.83;;;14.20;89.60;;;;;;5075149;28;20435;-76
2023/05/06 05:27:20;;;;;;;6.33;4.40;;;14.20;89.60;;;;;;5056392;28;20209;-75
2023/05/06 05:29:46;;;;;;;11.43;4.10;;;14.20;89.70;;;;;;5071922;28;20192;-76
2023/05/06 05:32:11;;;;;;;8.27;4.50;;;14.30;89.90;;;;;;5071911;28;20261;-74
2023/05/06 05:34:37;;;;;;;5.87;4.03;;;14.40;89.90;;;;;;5073522;28;20241;-75
2023/05/06 05:37:02;;;;;;;6.27;4.17;;;14.50;89.60;;;;;;5057315;28;20221;-76
2023/05/06 05:39:28;;;;;;;6.83;5.10;;;14.50;89.50;;;;;;5070732;28;20216;-77
2023/05/06 05:41:54;;;;;;;7.10;4.73;;;14.60;88.70;;;;;;5057067;28;20272;-77
2023/05/06 05:44:19;;;;;;;7.00;4.80;;;14.70;87.60;;;;;;5067021;28;20204;-77
2023/05/06 05:46:45;;;;;;;7.97;5.10;;;14.70;87.40;;;;;;5069736;28;20193;-77
2023/05/06 05:49:11;;;;;;;12.93;4.00;;;14.80;87.70;;;;;;5046182;28;20492;-77
2023/05/06 05:51:36;;;;;;;6.60;4.40;;;14.90;87.00;;;;;;5057369;28;20211;-77
2023/05/06 05:54:02;;;;;;;8.03;3.93;;;14.90;85.90;;;;;;5041627;28;20191;-79
2023/05/06 05:56:27;;;;;;;6.37;4.97;;;15.00;85.00;;;;;;5055866;28;20182;-78
2023/05/06 05:58:53;;;;;;;8.03;4.40;;;15.10;84.90;;;;;;5035056;28;20307;-79
2023/05/06 06:01:19;;;;;;;8.30;4.50;;;15.10;84.90;;;;;;5036452;28;20214;-79
2023/05/06 06:03:44;;;;;;;6.63;4.07;;;15.20;84.40;;;;;;5038683;28;20192;-78
2023/05/06 06:06:10;;;;;;;5.70;4.23;;;15.30;84.30;;;;;;5032978;28;20263;-75
2023/05/06 06:08:36;;;;;;;6.37;3.60;;;15.40;82.50;;;;;;5056152;28;20567;-77
2023/05/06 06:11:03;;;;;;;4.80;3.70;;;15.50;82.50;;;;;;5060169;28;20450;-76
2023/05/06 06:13:29;;;;;;;3.77;3.50;;;15.50;81.80;;;;;;5063454;28;20633;-76
2023/05/06 06:15:58;;;;;;;8.73;3.43;;;15.50;81.80;;;;;;5044080;28;20483;-74
2023/05/06 06:18:23;;;;;;;5.77;3.53;;;15.50;82.10;;;;;;5063181;28;20430;-76
2023/05/06 06:20:49;;;;;;;6.67;3.47;;;15.60;82.40;;;;;;5055015;28;20892;-75
2023/05/06 06:23:15;;;;;;;6.03;3.50;;;15.70;82.10;;;;;;5055374;28;20211;-77
2023/05/06 06:25:41;;;;;;;4.10;3.27;;;15.90;82.10;;;;;;5055088;28;20227;-74
2023/05/06 06:28:06;;;;;;;6.63;3.50;;;16.00;81.80;;;;;;5055878;28;20176;-75
2023/05/06 06:30:32;;;;;;;7.73;3.80;;;16.20;81.20;;;;;;5056446;28;20214;-74
2023/05/06 06:33:00;;;;;;;7.10;3.70;;;16.40;80.30;;;;;;5058113;28;20195;-76
2023/05/06 06:35:26;;;;;;;8.10;3.47;;;16.40;79.20;;;;;;5041350;28;20181;-76
2023/05/06 06:37:52;;;;;;;3.63;3.20;;;16.40;78.70;;;;;;5069643;28;20519;-77
2023/05/06 06:40:18;;;;;;;6.70;3.43;;;16.50;78.30;;;;;;5053523;28;20565;-77
2023/05/06 06:42:45;;;;;;;4.63;3.57;;;16.60;78.30;;;;;;5065734;28;20486;-77
2023/05/06 06:45:12;;;;;;;5.77;3.20;;;16.50;77.40;;;;;;5061390;28;20185;-78
2023/05/06 06:47:37;;;;;;;4.40;2.73;;;16.40;78.30;;;;;;5056136;28;20423;-78
2023/05/06 06:50:03;;;;;;;4.30;2.30;;;16.30;77.10;;;;;;5050731;28;20597;-77
2023/05/06 06:52:29;;;;;;;4.50;2.73;;;16.10;77.30;;;;;;5054018;28;20203;-77
2023/05/06 06:54:55;;;;;;;5.10;2.27;;;16.00;77.70;;;;;;5050769;28;20434;-76
2023/05/06 06:57:20;;;;;;;7.70;2.30;;;15.80;77.10;;;;;;5050236;28;20231;-77
2023/05/06 06:59:46;;;;;;;3.57;2.17;;;15.90;77.40;;;;;;5050288;28;20216;-77
2023/05/06 07:02:12;;;;;;;3.73;2.60;;;15.80;76.80;;;;;;5052417;28;20212;-75
2023/05/06 07:04:37;;;;;;;6.17;2.47;;;15.90;77.60;;;;;;5033121;28;20438;-76
2023/05/06 07:07:03;;;;;;;2.73;2.27;;;15.90;77.60;;;;;;5051740;28;20183;-75
2023/05/06 07:09:28;;;;;;;8.10;2.60;;;16.00;77.40;;;;;;5047992;28;20217;-74
2023/05/06 07:11:55;;;;;;;5.10;2.10;;;16.20;77.40;;;;;;5051931;28;20189;-74
2023/05/06 07:14:20;;;;;;;3.00;1.60;;;16.30;75.70;;;;;;5027882;28;20188;-74
2023/05/06 07:16:46;;;;;;;3.30;2.57;;;16.20;74.80;;;;;;5049933;28;20434;-74
2023/05/06 07:19:12;;;;;;;4.00;2.10;;;16.20;75.70;;;;;;5048205;28;20194;-77
2023/05/06 07:21:37;;;;;;;5.03;2.43;;;16.40;76.10;;;;;;5048579;28;20778;-76
2023/05/06 07:24:03;;;;;;;4.20;2.40;;;16.60;74.80;;;;;;5049508;28;20204;-75
2023/05/06 07:26:28;;;;;;;2.73;1.90;;;16.30;75.20;;;;;;5049697;28;20665;-76
2023/05/06 07:28:54;;;;;;;3.37;2.10;;;16.40;75.90;;;;;;5032744;28;20196;-76
2023/05/06 07:31:20;;;;;;;4.23;2.50;;;16.60;75.20;;;;;;5048021;28;20236;-75
2023/05/06 07:33:49;;;;;;;3.47;2.13;;;16.70;74.00;;;;;;5031206;28;20203;-76
2023/05/06 07:36:14;;;;;;;2.77;1.67;;;16.80;74.00;;;;;;5051939;28;20199;-75
2023/05/06 07:38:40;;;;;;;5.20;2.33;;;16.30;71.10;;;;;;5052539;28;20430;-74
2023/05/06 07:41:06;;;;;;;4.07;2.43;;;16.20;74.50;;;;;;5049012;28;20204;-75
2023/05/06 07:43:31;;;;;;;2.47;1.73;;;16.40;74.90;;;;;;5052956;28;20207;-75
2023/05/06 07:46:01;;;;;;;6.80;2.50;;;16.50;73.70;;;;;;5055250;28;20184;-74
2023/05/06 07:48:28;;;;;;;5.37;2.13;;;16.70;73.60;;;;;;5050420;28;20172;-74
2023/05/06 07:50:54;;;;;;;4.13;2.67;;;16.70;74.20;;;;;;5045351;28;20548;-74
2023/05/06 07:53:20;;;;;;;2.90;2.40;;;16.60;74.00;;;;;;5050854;28;20422;-75
2023/05/06 07:55:46;;;;;;;4.20;2.40;;;16.60;74.80;;;;;;5050371;28;20460;-75
2023/05/06 07:58:11;;;;;;;4.53;2.60;;;16.90;74.60;;;;;;5033090;28;20929;-76
2023/05/06 08:00:37;;;;;;;4.17;2.50;;;17.20;74.00;;;;;;5047877;28;20213;-75
2023/05/06 08:03:03;;;;;;;3.53;2.40;;;17.50;73.30;;;;;;5050445;28;20205;-75
2023/05/06 08:05:28;;;;;;;5.03;2.60;;;17.80;72.40;;;;;;5031913;28;20193;-76
2023/05/06 08:07:54;;;;;;;4.73;2.63;;;18.10;72.10;;;;;;5044706;28;20215;-76
2023/05/06 08:10:21;;;;;;;5.30;2.43;;;18.30;71.30;;;;;;5047672;28;20256;-75
2023/05/06 08:12:46;;;;;;;3.60;2.40;;;18.50;70.50;;;;;;5050610;28;20991;-76
2023/05/06 08:15:12;;;;;;;2.83;2.10;;;18.50;69.80;;;;;;5049970;28;20417;-75
2023/05/06 08:17:38;;;;;;;3.33;2.23;;;18.70;69.10;;;;;;5051138;28;20188;-77
2023/05/06 08:20:03;;;;;;;6.00;3.07;;;18.60;68.50;;;;;;5047726;28;20227;-75
2023/05/06 08:22:29;;;;;;;5.83;2.70;;;18.70;68.80;;;;;;5050407;28;20223;-76
2023/05/06 08:24:56;;;;;;;2.70;2.00;;;18.80;68.60;;;;;;5050248;28;20419;-75
2023/05/06 08:27:21;;;;;;;2.63;2.03;;;18.80;68.20;;;;;;5051297;28;20587;-76
2023/05/06 08:29:47;;;;;;;6.03;2.40;;;18.90;67.70;;;;;;5047444;28;20498;-75
2023/05/06 08:32:13;;;;;;;3.47;1.97;;;18.80;67.30;;;;;;5032653;28;20192;-74
2023/05/06 08:34:38;;;;;;;3.30;2.17;;;18.80;67.60;;;;;;5030551;28;20185;-76
2023/05/06 08:37:04;;;;;;;2.47;1.70;;;19.00;67.30;;;;;;5051376;28;20212;-76
2023/05/06 08:39:30;;;;;;;3.00;1.90;;;19.20;67.00;;;;;;5047508;28;20247;-75
2023/05/06 08:41:58;;;;;;;4.23;2.10;;;19.30;66.90;;;;;;5050975;28;20200;-75
2023/05/06 08:44:24;;;;;;;3.40;2.20;;;19.40;66.60;;;;;;5031827;28;20523;-75
2023/05/06 08:46:50;;;;;;;2.40;1.90;;;19.50;65.80;;;;;;5050760;28;20760;-76
2023/05/06 08:49:16;;;;;;;4.00;2.03;;;19.60;66.00;;;;;;5049067;28;20698;-76
2023/05/06 08:51:43;;;;;;;5.60;2.63;;;19.50;65.60;;;;;;5049603;28;20923;-75
2023/05/06 08:54:12;;;;;;;3.00;2.33;;;18.70;66.70;;;;;;5049523;28;20189;-76
2023/05/06 08:56:44;;;;;;;3.57;1.80;;;18.80;67.30;;;;;;5049212;28;20422;-75
2023/05/06 08:59:10;;;;;;;4.03;1.73;;;19.00;67.00;;;;;;5048712;28;20411;-76
2023/05/06 09:01:36;;;;;;;2.60;2.20;;;18.60;66.70;;;;;;5048055;28;20552;-76
2023/05/06 09:04:03;;;;;;;2.60;1.80;;;18.00;68.30;;;;;;5049675;28;20986;-75
2023/05/06 09:06:28;;;;;;;3.63;2.63;;;18.30;68.60;;;;;;5038303;28;20449;-75
2023/05/06 09:08:54;;;;;;;5.80;3.10;;;18.60;68.80;;;;;;5050117;28;20803;-76
2023/05/06 09:11:25;;;;;;;4.20;3.07;;;18.60;69.40;;;;;;5046899;28;20194;-74
2023/05/06 09:14:05;;;;;;;2.60;2.40;;;18.60;69.20;;;;;;5050716;28;20490;-76
2023/05/06 09:16:31;;;;;;;4.50;2.97;;;18.80;69.20;;;;;;5048477;28;20533;-76
2023/05/06 09:18:58;;;;;;;4.67;3.30;;;19.00;68.60;;;;;;5050205;28;20861;-76
2023/05/06 09:21:38;;;;;;;3.80;3.20;;;18.70;68.50;;;;;;5048698;28;20194;-75
2023/05/06 09:24:05;;;;;;;5.00;3.23;;;18.70;68.90;;;;;;5047364;28;20426;-76
2023/05/06 09:26:35;;;;;;;9.00;2.80;;;18.40;68.60;;;;;;5056890;28;20473;-75
2023/05/06 09:29:02;;;;;;;3.93;2.60;;;18.50;68.80;;;;;;5051303;28;20520;-77
2023/05/06 09:31:28;;;;;;;3.57;2.40;;;18.30;68.50;;;;;;5050592;28;20430;-78
2023/05/06 09:33:55;;;;;;;6.00;2.77;;;18.30;68.80;;;;;;5057127;28;20771;-75
2023/05/06 09:36:22;;;;;;;4.13;2.50;;;18.70;68.00;;;;;;5057178;28;20430;-77
2023/05/06 09:38:48;;;;;;;2.90;2.47;;;18.90;67.50;;;;;;5043580;28;20543;-78
2023/05/06 09:41:15;;;;;;;3.50;2.73;;;19.30;67.00;;;;;;5042438;28;20606;-76
2023/05/06 09:43:47;;;;;;;3.90;3.00;;;19.50;66.30;;;;;;5045871;28;20522;-78
2023/05/06 09:46:14;;;;;;;2.93;2.20;;;19.60;66.40;;;;;;5031845;28;20447;-75
2023/05/06 09:48:41;;;;;;;4.37;2.40;;;19.50;66.30;;;;;;5031441;28;20427;-76
2023/05/06 09:51:07;;;;;;;3.37;2.60;;;19.80;65.10;;;;;;5047484;28;20575;-76
2023/05/06 09:53:36;;;;;;;4.43;2.47;;;19.30;65.60;;;;;;5050577;28;20422;-76
2023/05/06 09:56:07;;;;;;;2.63;2.33;;;18.80;66.90;;;;;;5050270;28;20515;-75
2023/05/06 09:58:34;;;;;;;2.93;2.47;;;19.10;66.60;;;;;;5050822;28;20581;-76
2023/05/06 10:01:03;;;;;;;3.20;2.90;;;18.80;66.60;;;;;;5061755;28;20458;-75
2023/05/06 10:03:30;;;;;;;3.20;2.63;;;19.40;65.80;;;;;;5057089;28;20969;-74
2023/05/06 10:05:58;;;;;;;4.80;3.10;;;19.50;65.60;;;;;;5050097;28;20495;-74
2023/05/06 10:08:24;;;;;;;3.93;2.80;;;19.60;65.80;;;;;;5050834;28;20782;-76
2023/05/06 10:10:50;;;;;;;4.23;3.10;;;20.10;65.60;;;;;;5047056;28;20460;-75
2023/05/06 10:13:18;;;;;;;4.17;3.60;;;20.10;64.70;;;;;;5046665;28;20431;-76
2023/05/06 10:15:48;;;;;;;6.70;3.40;;;20.10;64.50;;;;;;5048527;28;20416;-75
2023/05/06 10:18:19;;;;;;;3.83;3.00;;;20.20;64.70;;;;;;5049036;28;20503;-75
2023/05/06 10:20:46;;;;;;;3.80;3.23;;;19.60;65.40;;;;;;5045492;28;20456;-77
2023/05/06 10:23:24;;;;;;;3.93;3.43;;;19.20;66.10;;;;;;5049091;28;20472;-77
2023/05/06 10:25:54;;;;;;;3.20;2.70;;;19.70;65.40;;;;;;5048745;28;20424;-76
2023/05/06 10:28:21;;;;;;;3.30;3.07;;;20.20;63.70;;;;;;5052449;28;20409;-75
2023/05/06 10:30:48;;;;;;;2.97;2.80;;;20.40;63.10;;;;;;5050154;28;20456;-76
2023/05/06 10:33:14;;;;;;;4.83;3.43;;;20.00;63.80;;;;;;5052750;28;20422;-77
2023/05/06 10:35:40;;;;;;;3.87;2.90;;;20.30;62.90;;;;;;5050943;28;20543;-76
2023/05/06 10:38:11;;;;;;;3.43;2.33;;;20.80;63.40;;;;;;5052981;28;20935;-76
2023/05/06 10:40:37;;;;;;;7.07;2.87;;;21.60;61.00;;;;;;5033301;28;20664;-76
2023/05/06 10:43:19;;;;;;;3.70;3.30;;;21.40;60.60;;;;;;5052588;28;20480;-75
2023/05/06 10:46:17;;;;;;;4.13;2.83;;;21.20;61.00;;;;;;5051825;28;20420;-76
2023/05/06 10:49:09;;;;;;;6.23;2.40;;;21.10;61.90;;;;;;4951561;29;20486;-77
2023/05/06 10:51:39;;;;;;;6.77;3.10;;;21.40;61.70;;;;;;4951135;29;20819;-75
2023/05/06 10:54:10;;;;;;;4.60;3.13;;;22.10;60.00;;;;;;4951362;29;20418;-75
2023/05/06 10:56:38;;;;;;;4.40;2.73;;;22.70;58.50;;;;;;4950232;29;20788;-75
2023/05/06 10:59:08;;;;;;;4.87;3.40;;;23.20;56.00;;;;;;4949690;29;20425;-74
2023/05/06 11:01:43;;;;;;;4.77;2.53;;;22.80;56.80;;;;;;4951308;29;20490;-74
2023/05/06 11:04:14;;;;;;;4.40;2.73;;;22.70;56.80;;;;;;4952406;28;20434;-75
2023/05/06 11:06:41;;;;;;;3.20;2.80;;;23.00;57.20;;;;;;4952058;29;20823;-77
2023/05/06 11:09:16;;;;;;;2.87;2.40;;;23.10;55.70;;;;;;4952091;28;20451;-75
2023/05/06 11:11:57;;;;;;;3.83;2.70;;;22.40;57.00;;;;;;4935331;29;20481;-76
2023/05/06 11:14:31;;;;;;;3.53;3.07;;;22.50;57.00;;;;;;4952056;28;20505;-76
2023/05/06 11:16:58;;;;;;;4.50;3.30;;;22.40;57.20;;;;;;4951231;29;20532;-78
2023/05/06 11:19:28;;;;;;;5.37;3.30;;;22.30;57.40;;;;;;4935711;29;20470;-75
2023/05/06 11:21:56;;;;;;;3.90;2.80;;;22.20;58.20;;;;;;4951526;29;20480;-75
2023/05/06 11:24:27;;;;;;;4.10;2.77;;;22.40;57.60;;;;;;4996054;28;20431;-73
2023/05/06 11:26:54;;;;;;;4.10;3.10;;;22.40;57.20;;;;;;5051349;28;20415;-76
2023/05/06 11:29:21;;;;;;;3.00;2.33;;;22.20;57.00;;;;;;5041590;28;20529;-76
2023/05/06 11:31:46;;;;;;;3.00;2.50;;;22.30;58.00;;;;;;5045688;28;20428;-76
2023/05/06 11:34:24;;;;;;;3.90;2.60;;;22.90;56.40;;;;;;5028526;28;20982;-75
2023/05/06 11:36:57;;;;;;;3.20;2.60;;;23.20;55.60;;;;;;5047890;28;20652;-76
2023/05/06 11:39:29;;;;;;;5.10;2.90;;;23.50;53.80;;;;;;5030137;28;20449;-78
2023/05/06 11:42:04;;;;;;;3.20;2.30;;;23.10;55.20;;;;;;5051198;28;20498;-76
2023/05/06 11:44:37;;;;;;;4.53;2.63;;;23.60;53.20;;;;;;5049203;28;20441;-77
2023/05/06 11:47:05;;;;;;;3.40;2.70;;;24.10;51.80;;;;;;5050661;28;20925;-74
2023/05/06 11:49:38;;;;;;;3.07;2.60;;;24.20;51.40;;;;;;5049034;28;20514;-75
2023/05/06 11:52:05;;;;;;;10.40;3.90;;;23.90;51.70;;;;;;5048799;28;20418;-75
2023/05/06 11:54:42;;;;;;;5.17;2.80;;;23.80;52.40;;;;;;5050521;28;20418;-75
2023/05/06 11:57:08;;;;;;;4.00;2.50;;;23.70;51.80;;;;;;5042524;28;20415;-75
2023/05/06 11:59:36;;;;;;;4.07;2.50;;;23.50;52.20;;;;;;5026267;28;21032;-75
2023/05/06 12:02:05;;;;;;;2.60;2.40;;;23.40;52.80;;;;;;5051069;28;20465;-76
2023/05/06 12:04:41;;;;;;;4.33;2.57;;;23.60;52.40;;;;;;5051436;28;20420;-74
2023/05/06 12:07:10;;;;;;;4.00;2.60;;;24.00;51.70;;;;;;5041155;28;20408;-75
2023/05/06 12:09:38;;;;;;;3.07;2.37;;;24.20;50.70;;;;;;5030941;28;20456;-75
2023/05/06 12:12:04;;;;;;;3.00;2.17;;;24.60;50.10;;;;;;5051734;28;20836;-76
2023/05/06 12:14:31;;;;;;;4.93;2.47;;;24.80;47.90;;;;;;5044736;28;20976;-75
2023/05/06 12:16:57;;;;;;;5.47;2.37;;;24.60;48.10;;;;;;5053973;28;20909;-78
2023/05/06 12:19:23;;;;;;;2.83;2.47;;;23.50;51.20;;;;;;5050417;28;20471;-75
2023/05/06 12:21:49;;;;;;;2.87;2.43;;;23.00;53.30;;;;;;5029822;28;20512;-77
2023/05/06 12:24:25;;;;;;;4.53;3.07;;;22.70;54.00;;;;;;5055103;28;20418;-75
2023/05/06 12:26:50;;;;;;;4.10;3.20;;;22.90;54.00;;;;;;5054171;28;20196;-77
2023/05/06 12:29:17;;;;;;;5.87;3.40;;;22.60;53.70;;;;;;5049661;28;20454;-76
2023/05/06 12:31:45;;;;;;;25.27;6.37;;;22.90;54.40;;;;;;5052027;28;20321;-76
2023/05/06 12:34:12;;;;;;;6.53;2.90;;;23.20;54.40;;;;;;5032956;28;20518;-76
2023/05/06 12:36:46;;;;;;;5.50;3.17;;;23.10;53.60;;;;;;5051249;28;20429;-75
2023/05/06 12:39:12;;;;;;;3.30;3.20;;;22.00;55.70;;;;;;5027179;28;20576;-75
2023/05/06 12:41:44;;;;;;;5.10;2.90;;;21.40;57.30;;;;;;5051618;28;20433;-77
2023/05/06 12:44:38;;;;;;;5.43;3.10;;;21.30;58.20;;;;;;5048612;28;20442;-76
2023/05/06 12:47:06;;;;;;;5.70;3.27;;;21.00;58.50;;;;;;5049707;28;20505;-77